Tiempo atmosférico en la estación meteorológica de Yecla, Murcia (640 m.)



Fecha
DESCASC
Temp. máxima en grados centígrados (hora)
DESCASC
Temp. mínima en grados centígrados (hora)
DESCASC
Temp. media en grados centígrados
DESCASC
Racha de viento máxima en m/sg (hora)
DESCASC
Velocidad máxima media en intervalos de 10 minutos(hora)
DESCASC
Precipitaciones diarias en mm
DESCASC
Precipitaciones de 00:00 a 06:00 en mm
DESCASC
Precipitaciones de 06:00 a 12:00 en mm
DESCASC
Precipitaciones de 12:00 a 18:00 en mm
DESCASC
Precipitaciones de 18:00 a 24:00 en mm
DESCASC
19-09-2019 28.4 (15:00) 14.9 (08:00) 21.6 6.67 (15:30) 3.33 (18:10) 0 0 0 0 0
18-09-2019 -- (--) -- (--) -- 5.83 (19:10) 3.61 (19:10) -- 0 -- 0 0
17-09-2019 -- (--) -- (--) -- 6.11 (18:40) 3.61 (18:00) 0 0 0 0 0
16-09-2019 -- (--) -- (--) -- 6.67 (17:20) 3.33 (14:00) 0 0 0 0 0
15-09-2019 -- (--) -- (--) -- 10.83 (14:50) 6.94 (15:10) 0 0 0 0 0
14-09-2019 -- (--) -- (--) -- -- (--) -- (--) -- -- -- 0 0
13-09-2019 -- (--) -- (--) -- -- (--) -- (--) -- 0.4 -- -- --
12-09-2019 18 (18:50) 13.9 (00:00) 15.9 14.44 (19:40) 8.89 (13:40) 44.2 21.2 6.6 8.4 8
11-09-2019 19.4 (16:40) 12 (00:00) 15.7 14.17 (13:10) 9.17 (13:10) 2.2 0 1 0.2 1
10-09-2019 24.5 (16:40) 13.8 (23:59) 19.2 15.28 (15:20) 7.5 (15:30) 0 0 0 0 0
09-09-2019 30.4 (15:50) 14.1 (08:10) 22.3 10.83 (17:30) 7.22 (17:30) 0 0 0 0 0
08-09-2019 26.7 (17:10) 13.8 (00:00) 20.3 6.11 (19:30) 3.89 (19:40) 0 0 0 0 0
07-09-2019 27.2 (15:00) 17.7 (00:00) 22.5 8.89 (17:30) 5 (15:50) 0 0 0 0 0
06-09-2019 26.7 (17:50) 17.8 (00:00) 22.3 8.06 (11:40) 4.72 (10:50) 0 0 0 0 0
05-09-2019 29.9 (16:10) 19.2 (00:00) 24.6 10.28 (15:40) 5 (18:10) 0 0 0 0 0
04-09-2019 31.8 (16:40) 17.5 (00:00) 24.6 8.06 (17:40) 5 (17:40) 0 0 0 0 0
03-09-2019 31.2 (16:40) 16.5 (00:00) 23.9 8.06 (18:50) 4.17 (19:40) 0 0 0 0 0
02-09-2019 28.2 (16:30) 18.5 (00:00) 23.4 9.44 (05:40) 6.11 (04:00) 2 1.6 0.2 0.2 0
01-09-2019 34.3 (16:20) 15.6 (00:00) 24.9 9.72 (17:20) 4.72 (19:00) 0 0 0 0 0
31-08-2019 32.9 (15:00) 15.1 (00:00) 24 11.11 (16:00) 6.67 (16:50) 5.2 0 0 5.2 0
30-08-2019 33 (15:00) 15.3 (00:00) 24.2 7.78 (17:10) 4.72 (17:10) 0 0 0 0 0
29-08-2019 31.7 (15:40) 16 (00:00) 23.9 6.94 (19:30) 4.17 (18:00) 0 0 0 0 0
28-08-2019 32.3 (16:40) 12.9 (00:00) 22.6 7.22 (17:20) 4.17 (18:20) 0 0 0 0 0
27-08-2019 26.4 (17:50) 16 (00:00) 21.2 11.11 (15:10) 7.22 (15:10) 7.6 1 0 6.6 0
26-08-2019 27.9 (16:40) 15.8 (00:00) 21.8 9.72 (12:50) 5.83 (12:50) 0 0 0 0 0
25-08-2019 30.1 (15:10) 14 (00:00) 22.1 10.28 (15:50) 4.44 (14:30) 0 0 0 0 0
24-08-2019 32 (16:50) 13.2 (00:00) 22.6 8.33 (17:30) 5.28 (17:40) 0 0 0 0 0
23-08-2019 30.6 (17:40) 12.1 (00:00) 21.4 6.94 (16:00) 3.89 (17:00) 0 0 0 0 0

Gráficas

Temp. máximas Temp. mínimas Temp. medias Precipitaciones Rachas de viento máximas Velocidades máximas media en intervalos de 10 minutos

Datos horarios

Fecha y hora oficial Temperatura (ºC) Velocidad del viento (km/h) Dirección del viento Racha (km/h) Dirección de racha Precipitación (mm) Presión (hPa) Tendencia (hPa) Humedad (%)
2019-09-21 23:00:00 20.3 9 Oeste 11 Oeste 0 941.7 0.5 76
2019-09-21 22:00:00 20.9 9 Oeste 12 Oeste 0 941.3 0.6 71
2019-09-21 21:00:00 21.5 4 Sur 10 Sur 0 940.6 0 67
2019-09-21 20:00:00 22.2 8 Sudoeste 15 Sudoeste 0 941.2 1 62
2019-09-21 19:00:00 23.5 11 Sudoeste 20 Oeste 0 940.7 0 54
2019-09-21 18:00:00 24.1 12 Sudoeste 17 Sudoeste 0 940.6 -0.4 52
2019-09-21 17:00:00 24.3 9 Sudoeste 19 Sudoeste 0 940.2 -1.2 51
2019-09-21 16:00:00 24.7 13 Oeste 22 Sudoeste 0 940.7 -1.1 49
2019-09-21 15:00:00 24.7 14 Sudoeste 21 Oeste 0 941 -1.3 50
2019-09-21 14:00:00 24.5 5 Sudeste 12 Oeste 0 941.4 -0.6 51
2019-09-21 13:00:00 24 4 Sudoeste 9 Sudoeste 0 941.8 -0.1 53
2019-09-21 12:00:00 22.2 3 Sudoeste 9 Sudeste 0 942.3 0.6 62
2019-09-21 11:00:00 23 5 Sur 11 Sudoeste 0 942 0.4 64
2019-09-21 10:00:00 19.4 3 Sur 9 Noroeste 0 941.9 0.5 82
2019-09-21 09:00:00 18 4 Sudeste 8 Noroeste 0 941.7 0.1 89
2019-09-21 08:00:00 17.8 6 Sudeste 9 Norte 0 941.6 0.3 90
2019-09-21 07:00:00 17.4 0 Calma 9 Oeste 0 941.4 -0.5 91
2019-09-21 06:00:00 17 3 Sudoeste 7 Sudoeste 0 941.6 -0.9 90
2019-09-21 05:00:00 17.6 6 Sur 10 Sudeste 0 941.3 -1.9 89
2019-09-21 04:00:00 18.5 8 Norte 14 Norte 0 941.9 -1.3 87
2019-09-21 03:00:00 19 3 Norte 5 Nordeste 0 942.5 -0.8 87
2019-09-21 02:00:00 19.1 4 Sudeste 11 Norte 0 943.2 0.8 86
2019-09-21 01:00:00 18.9 6 Nordeste 17 Nordeste 0 943.2 0.6 86
2019-09-21 00:00:00 19.2 6 Este 15 Nordeste 0 943.3 -0.5 86
2019-09-20 23:00:00 19.3 11 Nordeste 18 Nordeste 0 942.4 -0.9 83
2019-09-20 22:00:00 19.5 6 Nordeste 16 Nordeste 0 942.6 -0.5 80
2019-09-20 21:00:00 20.4 0 Calma 11 Sudeste 0 943.8 0.6 73
2019-09-20 20:00:00 21.5 6 Sudeste 18 Este 0 943.3 -0.1 66
2019-09-20 19:00:00 22.7 10 Este 19 Este 0 943.1 -0.4 59
2019-09-20 18:00:00 22.9 8 Sudeste 21 Sudeste 0 943.2 -1 61
2019-09-20 17:00:00 23.4 10 Sur 29 Sudeste 0 943.4 -1.1 60
2019-09-20 16:00:00 24.9 14 Sudeste 28 Sudeste 0 943.5 -1.3 52
2019-09-20 15:00:00 24.6 10 Sudeste 26 Sudeste 0 944.2 -0.9 55
2019-09-20 14:00:00 24.6 12 Sudeste 24 Sur 0 944.5 -0.6 53
2019-09-20 13:00:00 23.2 8 Este 22 Este 0 944.8 -0.2 60
2019-09-20 12:00:00 23.3 12 Este 24 Este 0 945.1 0.3 60
2019-09-20 11:00:00 20.8 15 Nordeste 23 Nordeste 0 945.1 0.1 72
2019-09-20 10:00:00 20.1 9 Nordeste 16 Nordeste 0 945 -0.2 73
2019-09-20 09:00:00 18.5 10 Nordeste 15 Nordeste 0 944.8 -0.4 84
2019-09-20 08:00:00 17.6 4 Nordeste 8 Nordeste 0 945 0 86
2019-09-20 07:00:00 17.7 2 Sudoeste 6 Norte 0 945.2 -0.1 87
2019-09-20 06:00:00 17.6 4 Nordeste 11 Nordeste 0 945.2 -0.2 87
2019-09-20 05:00:00 17.8 8 Nordeste 12 Nordeste 0 945 -0.5 87
2019-09-20 04:00:00 18 7 Nordeste 14 Nordeste 0 945.3 -0.2 86
2019-09-20 03:00:00 17.9 8 Nordeste 15 Nordeste 0 945.4 -0.1 87
2019-09-20 02:00:00 18.1 7 Nordeste 17 Nordeste 0 945.5 -0.2 86
2019-09-20 01:00:00 18.6 12 Nordeste 21 Nordeste 0 945.5 0.2 87
2019-09-20 00:00:00 18.7 6 Nordeste 18 Nordeste 0 945.5 0.9 87
2019-09-19 23:00:00 19.4 11 Nordeste 17 Nordeste 0 945.7 1.8 85
2019-09-19 22:00:00 19.8 0 Calma 8 Sudoeste 0 945.3 1.7 72
2019-09-19 21:00:00 21.6 4 Nordeste 12 Sudoeste 0 944.6 1.1 61
2019-09-19 20:00:00 23.4 4 Sur 16 Sur 0 943.9 0.3 54
2019-09-19 19:00:00 25.3 10 Sur 19 Sur 0 943.6 -0.2 43
2019-09-19 18:00:00 27 10 Sudeste 20 Sudeste 0 943.5 -0.7 36
2019-09-19 17:00:00 27.6 11 Sur 21 Sur 0 943.6 -0.9 37
2019-09-19 16:00:00 28 8 Este 24 Sur 0 943.8 -1.3 34
2019-09-19 15:00:00 28.2 6 Sur 19 Sudeste 0 944.2 -1 33
2019-09-19 14:00:00 27.8 8 Sudeste 22 Nordeste 0 944.5 -0.7 37
2019-09-19 13:00:00 27.3 7 Sudeste 14 Sudeste 0 945.1 0.1 39
2019-09-19 12:00:00 25.9 7 Este 16 Sudeste 0 945.2 0.5 46
2019-09-19 11:00:00 23.7 6 Nordeste 10 Nordeste 0 945.2 1.1 54
2019-09-19 10:00:00 19.7 2 Sur 4 Sudeste 0 945 1 78
2019-09-19 09:00:00 16.6 0 Calma 4 Oeste 0 944.7 0.6 91
2019-09-19 08:00:00 14.9 0 Calma 5 Sudoeste 0 944.1 0 91
2019-09-19 07:00:00 15.2 4 Oeste 6 Oeste 0 944 -0.2 91
2019-09-19 06:00:00 15.7 2 Oeste 8 Sudoeste 0 944.1 -0.2 90
2019-09-19 05:00:00 16.1 3 Oeste 10 Oeste 0 944.1 -0.4 89
2019-09-19 04:00:00 16.5 6 Oeste 8 Oeste 0 944.2 -0.4 88
2019-09-19 03:00:00 17 4 Sudoeste 10 Oeste 0 944.3 -0.4 85
2019-09-19 02:00:00 18.1 6 Oeste 13 Oeste 0 944.5 0 82
2019-09-19 01:00:00 18.3 8 Oeste 12 Oeste 0 944.6 0.4 82
2019-09-19 00:00:00 19 9 Oeste 13 Sudoeste 0 944.7 1.1 84
2019-09-18 23:00:00 20.2 2 Oeste 11 Oeste 0 944.5 1.7 79
2019-09-18 22:00:00 21.2 4 Sudoeste 8 Nordeste 0 944.2 1.8 73
2019-09-18 21:00:00 22.7 7 Sur 18 Sudoeste 0 943.6 1.3 67
2019-09-18 20:00:00 24.1 12 Sudoeste 21 Sudoeste 0 942.8 0.3 60
2019-09-18 19:00:00 26.2 9 Sur 19 Sur 0 942.4 -0.5 53
2019-09-18 18:00:00 28.4 6 Sur 14 Sur 0 942.3 -1.1 42
2019-09-18 17:00:00 29.4 10 Sur 15 Sur 0 942.5 -1.3 34
2019-09-18 16:00:00 28.8 10 Sudoeste 16 Sudoeste 0 942.9 -1.1 34
2019-09-18 15:00:00 28.6 5 Norte 14 Sur 0 943.4 -0.8 35
2019-09-18 14:00:00 28.4 8 Sudoeste 17 Sudoeste 0 943.8 -0.3 40
2019-09-18 13:00:00 27.6 9 Sur 17 Sudeste 0 944 0.2 45
2019-09-18 12:00:00 26.7 4 Norte -- -- -- 944.2 1 44
2019-09-18 11:00:00 -- 3 Sudoeste 6 Sudoeste 0 944.1 1.2 --
2019-09-18 10:00:00 -- 3 Sudeste -- -- -- 943.8 1.1 --
2019-09-18 09:00:00 -- 0 Calma 6 Sudoeste 0 943.2 0.5 --
2019-09-18 08:00:00 -- 2 Noroeste 14 Oeste 0 942.9 0.1 --
2019-09-18 07:00:00 -- 7 Sudoeste 10 Oeste 0 942.7 -0.3 --
2019-09-18 06:00:00 -- 5 Oeste 7 Oeste 0 942.7 -0.6 --
2019-09-18 05:00:00 -- 0 Calma 6 Sudoeste 0 942.8 -0.7 --
2019-09-18 04:00:00 -- 4 Sudoeste 7 Sudoeste 0 943 -0.7 --
2019-09-18 03:00:00 -- 3 Sudoeste 12 Oeste 0 943.3 -1 --
2019-09-18 02:00:00 -- 8 Oeste 15 Oeste 0 943.5 -0.9 --
2019-09-18 01:00:00 -- 5 Sudoeste 10 Oeste 0 943.7 -0.5 --
2019-09-18 00:00:00 -- 3 Noroeste 13 Oeste 0 944.3 0.9 --
2019-09-17 23:00:00 -- 8 Sudoeste 16 Oeste 0 944.4 0.9 --
2019-09-17 22:00:00 -- 4 Sudoeste 10 Sudoeste 0 944.2 1.3 --
2019-09-17 21:00:00 -- 5 Sur 16 Oeste 0 943.4 0.6 --
2019-09-15 18:00:00 -- 14 Nordeste 28 Nordeste 0 946.1 -0.8 --
2019-09-15 17:00:00 -- 18 Nordeste 34 Nordeste 0 946.3 -1.2 --
2019-09-15 16:00:00 -- 22 Nordeste 37 Nordeste 0 946.8 -0.9 --
2019-09-15 15:00:00 -- 22 Nordeste 39 Nordeste 0 946.9 -0.8 --
2019-09-15 14:00:00 -- 20 Nordeste 32 Nordeste 0 947.5 0.3 --
2019-09-15 13:00:00 -- 17 Nordeste 31 Nordeste 0 947.7 1.4 --
2019-09-15 12:00:00 -- 13 Nordeste 29 Nordeste 0 947.7 1.6 --
2019-09-15 11:00:00 -- 15 Nordeste 32 Nordeste 0 947.2 1 --
2019-09-15 10:00:00 -- 20 Nordeste 36 Nordeste 0 946.3 -0.1 --
2019-09-15 09:00:00 -- 18 Nordeste 31 Nordeste 0 946.1 -0.4 --
2019-09-15 08:00:00 -- 17 Nordeste 30 Nordeste 0 946.2 -0.6 --
2019-09-15 07:00:00 -- 15 Nordeste 31 Nordeste 0 946.4 -0.6 --
2019-09-15 06:00:00 -- 13 Nordeste 26 Nordeste 0 946.5 -1.3 --
2019-09-15 05:00:00 -- 21 Nordeste 33 Nordeste 0 946.8 -1.6 --
2019-09-15 04:00:00 -- 20 Nordeste 36 Nordeste 0 947 -1.4 --
2019-09-15 03:00:00 -- 19 Nordeste 33 Nordeste 0 947.8 -0.8 --
2019-09-15 02:00:00 -- 17 Nordeste 31 Nordeste 0 948.4 -0.5 --
2019-09-15 01:00:00 -- 15 Nordeste 32 Nordeste 0 948.4 0 --
2019-09-15 00:00:00 -- 17 Nordeste 31 Nordeste 0 948.6 0.6 --
2019-09-14 23:00:00 -- 19 Nordeste 32 Nordeste 0 948.9 1.4 --
2019-09-14 22:00:00 -- 17 Nordeste 33 Nordeste 0 948.4 0.8 --
2019-09-14 21:00:00 -- 20 Nordeste 45 Nordeste 0 948 0 --
2019-09-14 20:00:00 -- 22 Nordeste 32 Nordeste 0 947.5 -0.5 --
2019-09-14 19:00:00 -- 19 Nordeste 31 Nordeste 0 947.6 -0.9 --
2019-09-14 18:00:00 -- 24 Nordeste 40 Nordeste 0 948 -1.1 --
2019-09-14 17:00:00 -- 26 Nordeste 41 Nordeste 0 948 -2 --
2019-09-14 16:00:00 -- 26 Nordeste 42 Nordeste 0 948.5 -1.3 --
2019-09-14 15:00:00 -- 24 Nordeste 44 Nordeste 0 949.1 -0.5 --
2019-09-14 14:00:00 -- 19 Nordeste 38 Nordeste 0 950 -- --
2019-09-14 13:00:00 -- 24 Nordeste 42 Nordeste 0 949.8 -- --
2019-09-14 12:00:00 -- 23 Nordeste -- -- -- 949.6 -- --
2019-09-14 11:00:00 -- -- -- -- -- -- -- -- --
2019-09-14 10:00:00 -- -- -- -- -- -- -- -- --
2019-09-14 09:00:00 -- -- -- -- -- -- -- -- --
2019-09-14 08:00:00 -- -- -- -- -- -- -- -- --
2019-09-14 07:00:00 -- -- -- -- -- -- -- -- --
2019-09-14 06:00:00 -- -- -- -- -- -- -- -- --
2019-09-14 05:00:00 -- -- -- -- -- -- -- -- --
2019-09-14 04:00:00 -- -- -- -- -- -- -- -- --
2019-09-14 03:00:00 -- -- -- -- -- -- -- -- --
2019-09-14 02:00:00 -- -- -- -- -- -- -- -- --
2019-09-14 01:00:00 -- -- -- -- -- -- -- -- --
2019-09-14 00:00:00 -- -- -- -- -- -- -- -- --
2019-09-13 23:00:00 -- -- -- -- -- -- -- -- --
2019-09-13 22:00:00 -- -- -- -- -- -- -- -- --
2019-09-13 21:00:00 -- -- -- -- -- -- -- -- --
2019-09-13 20:00:00 -- -- -- -- -- -- -- -- --
2019-09-13 19:00:00 -- -- -- -- -- -- -- -- --
2019-09-13 18:00:00 -- -- -- -- -- -- -- -- --
2019-09-13 17:00:00 -- -- -- -- -- -- -- -- --
2019-09-13 16:00:00 -- -- -- -- -- -- -- -- --
2019-09-13 15:00:00 -- -- -- -- -- -- -- -- --
2019-09-13 14:00:00 -- -- -- -- -- -- -- -- --
2019-09-13 13:00:00 -- -- -- -- -- -- -- -- --
2019-09-13 12:00:00 -- -- -- -- -- -- -- -- --
2019-09-13 11:00:00 -- -- -- -- -- -- -- -- --
2019-09-13 10:00:00 -- -- -- -- -- -- -- -- --
2019-09-13 09:00:00 -- -- -- -- -- -- -- -- --
2019-09-13 08:00:00 -- -- -- -- -- -- -- -- --
2019-09-13 07:00:00 16.2 31 Nordeste 46 Nordeste 0.6 948.2 -2.4 83
2019-09-13 06:00:00 16.6 24 Nordeste 38 Nordeste 0.4 948.8 -2.1 85
2019-09-13 05:00:00 17.3 22 Nordeste 36 Nordeste 0 949.4 -1.5 79
2019-09-13 04:00:00 16.9 17 Nordeste 28 Nordeste 0 950.6 -0.8 82
2019-09-13 03:00:00 17.1 16 Nordeste 37 Nordeste 0 950.9 -0.9 80
2019-09-13 02:00:00 17.1 18 Nordeste 32 Nordeste 0 950.9 -2.5 81
2019-09-13 01:00:00 16.9 19 Norte 39 Norte 0 951.4 -1.4 81
2019-09-13 00:00:00 16.5 14 Norte 33 Norte 1.8 951.8 -0.3 85
2019-09-12 23:00:00 16.3 17 Nordeste 30 Nordeste 4.6 953.4 1.9 89
2019-09-12 22:00:00 16.8 7 Este 29 Nordeste 0.8 952.8 2 85
2019-09-12 21:00:00 16.9 24 Nordeste 48 Nordeste 0.8 952.1 1.5 86
2019-09-12 20:00:00 17.5 20 Nordeste 52 Nordeste 0 951.5 0.6 82
2019-09-12 19:00:00 18 23 Nordeste 51 Nordeste 0 950.8 -0.5 83
2019-09-12 18:00:00 17 22 Nordeste 39 Nordeste 0.4 950.6 -0.8 88
2019-09-12 17:00:00 16.7 30 Nordeste 51 Nordeste 0.6 950.9 -0.5 88
2019-09-12 16:00:00 16.5 13 Nordeste 45 Nordeste 2.6 951.3 -0.1 90
2019-09-12 15:00:00 16.7 21 Nordeste 36 Nordeste 1 951.4 0.4 89
2019-09-12 14:00:00 17.3 23 Nordeste 46 Nordeste 0 951.4 1 87
2019-09-12 13:00:00 16.5 16 Nordeste 45 Nordeste 3.8 951.4 2.1 92
2019-09-12 12:00:00 16.3 21 Nordeste 38 Nordeste 1.2 951 2.2 91
2019-09-12 11:00:00 16.7 22 Nordeste 34 Nordeste 0.6 950.4 2.2 91
2019-09-12 10:00:00 15.5 21 Nordeste 34 Nordeste 4.2 949.3 1.6 91
2019-09-12 09:00:00 16.6 12 Nordeste 20 Nordeste 0.6 948.8 1.1 91
2019-09-12 08:00:00 16.2 8 Este 23 Nordeste 0 948.2 0.9 88
2019-09-12 07:00:00 15.8 19 Nordeste 31 Nordeste 0 947.7 1.8 89
2019-09-12 06:00:00 16.5 14 Este 32 Este 0 947.7 0.8 81
2019-09-12 05:00:00 16.1 19 Este 40 Nordeste 1.4 947.3 -0.7 88
2019-09-12 04:00:00 15.7 18 Nordeste 50 Nordeste 11.6 945.9 -2.8 90
2019-09-12 03:00:00 15 19 Norte 47 Noroeste 6.2 946.9 -2 88
2019-09-12 02:00:00 14.7 11 Noroeste 28 Norte 1.8 948 -0.9 85
2019-09-12 01:00:00 14.7 13 Norte 26 Norte 0.2 948.7 -0.2 82
2019-09-12 00:00:00 14.1 3 Sudoeste 14 Nordeste 0 948.9 0.4 84
2019-09-11 23:00:00 14.6 9 Nordeste 27 Norte 0 948.9 1.6 81
2019-09-11 22:00:00 14.3 9 Nordeste 18 Nordeste 0 948.9 2.3 86
2019-09-11 21:00:00 14.4 6 Este 30 Nordeste 0.6 948.5 2.5 84
2019-09-11 20:00:00 15.3 19 Nordeste 40 Nordeste 0.4 947.3 1.8 82
2019-09-11 19:00:00 17 25 Nordeste 40 Nordeste 0 946.6 1.5 66
2019-09-11 18:00:00 17.8 26 Nordeste 40 Nordeste 0 946 0.9 62
2019-09-11 17:00:00 18.3 23 Nordeste 48 Nordeste 0 945.5 0.7 59
2019-09-11 16:00:00 18.2 23 Nordeste 37 Nordeste 0 945.1 0.9 62
2019-09-11 15:00:00 16.1 21 Nordeste 37 Nordeste 0 945.1 1.7 71
2019-09-11 14:00:00 15.1 22 Nordeste 51 Nordeste 0.2 944.8 1.5 76
2019-09-11 13:00:00 16.3 23 Nordeste 46 Norte 0 944.2 2.2 64
2019-09-11 12:00:00 15.4 31 Nordeste 47 Nordeste 0 943.4 1.7 66
2019-09-11 11:00:00 13.8 16 Nordeste 36 Norte 0 943.3 2 71
2019-09-11 10:00:00 12.5 8 Noroeste 38 Nordeste 1 942 0.8 78
2019-09-11 09:00:00 13.2 5 Noroeste 41 Nordeste 0 941.7 0.8 68
2019-09-11 08:00:00 13.5 11 Nordeste 42 Nordeste 0 941.3 0.2 62
2019-09-11 07:00:00 13.4 6 Noroeste 30 Norte 0 941.2 -0.2 60
2019-09-11 06:00:00 13.5 10 Nordeste 35 Nordeste 0 940.9 -0.5 58
2019-09-11 05:00:00 13.4 7 Nordeste 27 Oeste 0 941.1 -0.3 57
2019-09-11 04:00:00 13.1 8 Noroeste 27 Oeste 0 941.4 -0.5 58
2019-09-11 03:00:00 13.1 10 Oeste 31 Oeste 0 941.4 -0.2 56
2019-09-11 02:00:00 13.6 13 Oeste 31 Sudoeste 0 941.4 0.3 52
2019-09-11 01:00:00 14 8 Oeste 31 Oeste 0 941.9 0.9 47
2019-09-11 00:00:00 13.8 6 Sudoeste 38 Oeste 0 941.6 1.4 49
2019-09-10 23:00:00 15 9 Oeste 32 Nordeste 0 941.1 2.1 47
2019-09-10 22:00:00 15.7 12 Nordeste 42 Nordeste 0 941 2.6 41
2019-09-10 21:00:00 17.5 19 Nordeste 45 Nordeste 0 940.2 2.7 34
2019-09-10 20:00:00 20.4 14 Sudoeste 45 Sudoeste 0 939 1.6 21
2019-09-10 19:00:00 23 15 Oeste -- -- 0 938.4 0.8 19
2019-09-10 18:00:00 23.2 15 Oeste 39 Sudoeste 0 937.5 -0.4 16
2019-09-10 17:00:00 24.1 11 Oeste 41 Oeste 0 937.4 -0.9 18
2019-09-10 16:00:00 24 10 Sudoeste 55 Oeste 0 937.6 -0.9 18
2019-09-10 15:00:00 23.6 15 Noroeste 51 Oeste 0 937.9 -0.8 18
2019-09-10 14:00:00 23 15 Oeste 38 Oeste 0 938.3 -0.3 24
2019-09-10 13:00:00 23 16 Oeste 40 Oeste 0 938.5 0.2 27
2019-09-10 12:00:00 22.8 19 Oeste 47 Oeste 0 938.7 0.8 29
2019-09-10 11:00:00 21.1 21 Oeste 51 Oeste 0 938.6 0.7 33
2019-09-10 10:00:00 19.9 26 Oeste 46 Oeste 0 938.3 0.6 41
2019-09-10 09:00:00 19.4 13 Oeste 38 Oeste 0 937.9 -0.5 44
2019-09-10 08:00:00 18.7 14 Oeste 26 Oeste 0 937.9 -1.2 47
2019-09-10 07:00:00 16.4 8 Sudoeste 16 Oeste 0 937.7 -2 56
2019-09-10 06:00:00 16.9 10 Sudoeste 13 Sudoeste 0 938.4 -1.9 58
2019-09-10 05:00:00 17.2 5 Sudoeste 14 Oeste 0 939.1 -1.8 57
2019-09-10 04:00:00 18.9 7 Oeste 11 Oeste 0 939.7 -1.6 51
2019-09-10 03:00:00 18.6 6 Sudoeste 9 Sudoeste 0 940.3 -1.4 60
2019-09-10 02:00:00 20.4 8 Sudoeste 23 Oeste 0 940.9 -0.8 56
2019-09-10 01:00:00 21.8 18 Oeste 22 Oeste 0 941.3 -0.3 51
2019-09-10 00:00:00 22 12 Oeste 21 Oeste 0 941.7 0.2 49
2019-09-09 23:00:00 21.9 12 Oeste 22 Oeste 0 941.7 0.4 50
2019-09-09 22:00:00 22.8 14 Oeste 25 Sudoeste 0 941.6 0.5 45
2019-09-09 21:00:00 23.4 10 Sudoeste 31 Sudoeste 0 941.5 0.1 45
2019-09-09 20:00:00 25.4 18 Sudoeste 31 Sudoeste 0 941.3 -0.3 40
2019-09-09 19:00:00 27 22 Sudoeste 35 Sudoeste 0 941.1 -1 37
2019-09-09 18:00:00 28.3 21 Sudoeste 39 Sudoeste 0 941.4 -1.6 32
2019-09-09 17:00:00 28.7 23 Sudoeste 36 Sudoeste 0 941.6 -2.3 30
2019-09-09 16:00:00 29.2 15 Sudoeste 33 Oeste 0 942.1 -2.5 27
2019-09-09 15:00:00 29.1 16 Sur 30 Sudoeste 0 943 -2.1 30
2019-09-09 14:00:00 28.8 14 Sudoeste 27 Sudoeste 0 943.9 -1.2 32
2019-09-09 13:00:00 27.3 13 Sudoeste 28 Sudoeste 0 944.6 -0.5 33
2019-09-09 12:00:00 25.8 9 Sudoeste 16 Sudoeste 0 945.1 0 41
2019-09-09 11:00:00 23.7 8 Oeste 15 Oeste 0 945.1 0.3 50
2019-09-09 10:00:00 20.6 8 Sudoeste 12 Sudoeste 0 945.1 0.6 66
2019-09-09 09:00:00 15.8 2 Sudoeste 5 Sudeste 0 945.1 0.4 84
2019-09-09 08:00:00 14.4 3 Oeste 8 Oeste 0 944.8 -0.2 84
2019-09-09 07:00:00 14.7 6 Oeste 10 Oeste 0 944.5 -0.7 84
2019-09-09 06:00:00 14.8 2 Oeste 6 Oeste 0 944.7 -0.7 83
2019-09-09 05:00:00 15.6 2 Oeste 10 Oeste 0 945 -0.7 83
2019-09-09 04:00:00 16.4 6 Oeste 12 Sudoeste 0 945.2 -0.3 80
2019-09-09 03:00:00 17.3 6 Sudoeste 10 Sudoeste 0 945.4 0.1 76
2019-09-09 02:00:00 16.5 0 Calma 7 Sudoeste 0 945.7 0.4 78
2019-09-09 01:00:00 16.5 3 Oeste 9 Oeste 0 945.5 0.3 77
2019-09-09 00:00:00 17.2 5 Sudoeste 12 Oeste 0 945.3 0.9 76
2019-09-08 23:00:00 18.7 6 Sudoeste 14 Oeste 0 945.3 1.3 71
2019-09-08 22:00:00 20.1 9 Oeste 19 Sudoeste 0 945.2 1.6 66
2019-09-08 21:00:00 21.3 10 Sur 19 Sur 0 944.4 1 59
2019-09-08 20:00:00 23.3 12 Sur 22 Sur 0 944 0.2 50
2019-09-08 19:00:00 24.9 11 Sudeste 20 Sudeste 0 943.6 -0.7 44
2019-09-08 18:00:00 26.3 6 Sur 18 Sur 0 943.4 -1.7 39
2019-09-08 17:00:00 26.6 5 Sur 17 Sudeste 0 943.8 -1.4 36
2019-09-08 16:00:00 25.4 8 Sudeste 20 Sudeste 0 944.3 -1.4 40
2019-09-08 15:00:00 24.9 7 Sudeste 17 Sudoeste 0 945.1 -1 39
2019-09-08 14:00:00 23.7 6 Este 17 Sudoeste 0 945.2 -0.9 42
2019-09-08 13:00:00 23.3 7 Sur 17 Sur 0 945.7 0.1 47
2019-09-08 12:00:00 22.9 9 Sudeste 16 Sudeste 0 946.1 0.8 42
2019-09-08 11:00:00 21.6 4 Sur 11 Sudeste 0 946.1 1 58
2019-09-08 10:00:00 18.7 2 Este 6 Sudeste 0 945.6 0.7 77
2019-09-08 09:00:00 15.5 4 Sudoeste 6 Oeste 0 945.3 0.1 90
2019-09-08 08:00:00 14 0 Calma 8 Oeste 0 945.1 -0.3 89
2019-09-08 07:00:00 14.8 7 Oeste 11 Sudoeste 0 944.9 -0.8 88
2019-09-08 06:00:00 14.9 9 Oeste 11 Oeste 0 945.2 -0.9 87
2019-09-08 05:00:00 15.7 5 Sudoeste 8 Oeste 0 945.4 -0.6 84
2019-09-08 04:00:00 17.1 3 Sudeste 6 Noroeste 0 945.7 -1 80
2019-09-08 03:00:00 17.6 4 Sudoeste 6 Sudoeste 0 946.1 -1 80
2019-09-08 02:00:00 18 3 Este 12 Sur 0 946 -0.8 78
2019-09-08 01:00:00 18.4 7 Sur 19 Sur 0 946.7 0.2 76
2019-09-08 00:00:00 18.1 5 Sur 12 Sur 0 947.1 1.6 75
2019-09-07 23:00:00 18.3 6 Sur 19 Sur 0 946.8 1.8 76
2019-09-07 22:00:00 18.7 12 Sur 22 Sur 0 946.5 1.5 73
2019-09-07 21:00:00 19.4 9 Sur 16 Sur 0 945.5 0.7 69
2019-09-07 20:00:00 20.8 10 Sudeste 27 Este 0 945 -0.2 66
2019-09-07 19:00:00 21.9 13 Este 30 Este 0 945 -0.4 62
2019-09-07 18:00:00 23.1 15 Este 32 Este 0 944.8 -0.9 58
2019-09-07 17:00:00 23 15 Este 29 Este 0 945.2 -1.1 60
2019-09-07 16:00:00 24.7 17 Este 31 Este 0 945.4 -1.2 52
2019-09-07 15:00:00 27.2 8 Sudeste 24 Sur 0 945.7 -1.3 38
2019-09-07 14:00:00 25.7 9 Sudeste 22 Sudeste 0 946.3 -0.8 46
2019-09-07 13:00:00 24.5 9 Sudeste 20 Sudeste 0 946.6 -0.4 53
2019-09-07 12:00:00 23.9 10 Este 17 Este 0 947 0.2 56
2019-09-07 11:00:00 21.2 5 Sudeste 17 Sudeste 0 947.1 0.8 68
2019-09-07 10:00:00 20.1 5 Sudeste 16 Este 0 947 1.1 75
2019-09-07 09:00:00 18.6 8 Este 14 Nordeste 0 946.8 0.8 84
2019-09-07 08:00:00 17.7 2 Sudeste 4 Noroeste 0 946.3 -0.1 85
2019-09-07 07:00:00 18.1 2 Sudeste 11 Sudeste 0 945.9 -0.8 82
2019-09-07 06:00:00 18.6 6 Sur 10 Sudeste 0 946 -0.8 83
2019-09-07 05:00:00 18.8 5 Sudeste 14 Sur 0 946.4 -0.4 81
2019-09-07 04:00:00 19 2 Sudeste 7 Sudeste 0 946.7 -0.1 83
2019-09-07 03:00:00 19 3 Sudeste 10 Sudeste 0 946.8 0 81
2019-09-07 02:00:00 18.7 4 Nordeste 6 Nordeste 0 946.8 0.1 79
2019-09-07 01:00:00 18.7 2 Sudoeste 6 Este 0 946.8 0.6 77
2019-09-07 00:00:00 19.4 4 Este 8 Nordeste 0 946.8 1.6 75
2019-09-06 23:00:00 19.9 6 Sudeste 10 Este 0 946.7 2.1 71
2019-09-06 22:00:00 20.2 7 Este 19 Sudeste 0 946.2 1.9 72
2019-09-06 21:00:00 21.1 12 Este 21 Este 0 945.2 0.9 71
2019-09-06 20:00:00 23.5 10 Este 22 Sudeste 0 944.6 0.1 57
2019-09-06 19:00:00 24.6 15 Sudeste 25 Sudeste 0 944.3 -0.7 54
2019-09-06 18:00:00 26.5 11 Sudeste 19 Sudeste 0 944.3 -1.4 44
2019-09-06 17:00:00 25.1 8 Este 20 Este 0 944.5 -1.8 46
2019-09-06 16:00:00 25 9 Este 22 Sudeste 0 945 -1.5 46
2019-09-06 15:00:00 25.6 8 Este 21 Sudeste 0 945.7 -1.1 45
2019-09-06 14:00:00 25.2 8 Sudeste 22 Este 0 946.3 -0.6 46
2019-09-06 13:00:00 23.6 7 Sudeste 24 Este 0 946.5 -0.1 53
2019-09-06 12:00:00 22.9 11 Este 29 Este 0 946.8 0.3 54
2019-09-06 11:00:00 20.3 13 Nordeste 26 Nordeste 0 946.9 0.5 66
2019-09-06 10:00:00 19.1 10 Este 16 Este 0 946.6 0.7 71
2019-09-06 09:00:00 18.7 11 Nordeste 16 Nordeste 0 946.5 0.8 80
2019-09-06 08:00:00 17.8 10 Nordeste 17 Nordeste 0 946.4 0.8 86
2019-09-06 07:00:00 18.6 8 Nordeste 13 Nordeste 0 945.9 0 85
2019-09-06 06:00:00 18.9 8 Nordeste 10 Nordeste 0 945.7 -0.5 83
2019-09-06 05:00:00 18.9 2 Sudeste 6 Este 0 945.6 -0.7 81
2019-09-06 04:00:00 19.1 2 Sudeste 6 Este 0 945.9 -0.6 80
2019-09-06 03:00:00 19.2 3 Sudoeste 4 Nordeste 0 946.2 -0.2 79
2019-09-06 02:00:00 19.7 4 Este 9 Nordeste 0 946.3 0.5 78
2019-09-06 01:00:00 20 4 Este 11 Este 0 946.5 1.1 78
2019-09-06 00:00:00 20.1 4 Este 7 Este 0 946.4 1.3 79
2019-09-05 23:00:00 19.9 3 Sudoeste 10 Sudeste 0 945.8 0.9 77
2019-09-05 22:00:00 20.6 3 Sur 13 Sudeste 0 945.4 0.8 76
2019-09-05 21:00:00 21.3 4 Sur 21 Sudeste 0 945.1 0.8 72
2019-09-05 20:00:00 22.2 9 Sudeste 20 Sudeste 0 944.9 0.8 69
2019-09-05 19:00:00 22.8 13 Sudeste 32 Sudeste 0 944.6 0 67
2019-09-05 18:00:00 24.6 14 Sudeste 30 Este 0 944.3 -0.8 58
2019-09-05 17:00:00 27.3 7 Este 21 Sudeste 0 944.1 -1.3 46
2019-09-05 16:00:00 29.5 12 Sudoeste 37 Sur 0 944.6 -1.2 35
2019-09-05 15:00:00 28.4 5 Sudeste 22 Sudeste 0 945.1 -0.8 34
2019-09-05 14:00:00 27.7 9 Este 23 Este 0 945.4 -0.5 34
2019-09-05 13:00:00 25.7 8 Nordeste 24 Este 0 945.8 0.1 42
2019-09-05 12:00:00 25.1 13 Este 23 Este 0 945.9 0.7 47
2019-09-05 11:00:00 23.8 13 Nordeste 20 Nordeste 0 945.9 0.9 58
2019-09-05 10:00:00 20.8 11 Nordeste 18 Nordeste 0 945.7 0.9 78
2019-09-05 09:00:00 19.7 9 Nordeste 15 Nordeste 0 945.2 0.7 85
2019-09-05 08:00:00 19.5 5 Nordeste 15 Nordeste 0 945 0.6 87
2019-09-05 07:00:00 19.7 8 Nordeste 13 Nordeste 0 944.8 0.5 86
2019-09-05 06:00:00 19.8 6 Nordeste 17 Nordeste 0 944.5 0.1 87
2019-09-05 05:00:00 19.6 6 Nordeste 10 Nordeste 0 944.4 -0.5 87
2019-09-05 04:00:00 19.6 4 Nordeste 11 Nordeste 0 944.3 -0.9 85
2019-09-05 03:00:00 19.9 5 Nordeste 9 Norte 0 944.4 -0.7 82
2019-09-05 02:00:00 20.1 5 Nordeste 10 Nordeste 0 944.9 -0.2 83
2019-09-05 01:00:00 20.7 6 Nordeste 12 Nordeste 0 945.2 0.6 81
2019-09-05 00:00:00 21.5 6 Nordeste 15 Nordeste 0 945.1 0.9 77
2019-09-04 23:00:00 22.4 6 Nordeste 10 Este 0 945.1 1.1 71
2019-09-04 22:00:00 23.6 6 Sudoeste 13 Sudoeste 0 944.6 0.6 65
2019-09-04 21:00:00 25 6 Sudeste 19 Sudeste 0 944.2 0.3 60
2019-09-04 20:00:00 26.6 13 Sur 26 Sudeste 0 944 -0.1 54
2019-09-04 19:00:00 28.5 14 Sudeste 25 Sur 0 944 -0.9 46
2019-09-04 18:00:00 30.1 14 Sudeste 29 Sudeste 0 943.9 -1.7 41
2019-09-04 17:00:00 30.5 11 Sudoeste 24 Sudoeste 0 944.1 -2 35
2019-09-04 16:00:00 31 9 Sur 22 Sudeste 0 944.9 -1.9 33
2019-09-04 15:00:00 30.7 8 Sur 23 Sudeste 0 945.6 -1.9 34
2019-09-04 14:00:00 28.9 8 Sur 20 Sur 0 946.1 -1.3 40
2019-09-04 13:00:00 27.9 7 Sur 19 Sur 0 946.8 -0.7 45
2019-09-04 12:00:00 26.2 8 Sudoeste 16 Sudoeste 0 947.5 0.3 50
2019-09-04 11:00:00 24.4 6 Oeste 12 Sudoeste 0 947.4 0.2 59
2019-09-04 10:00:00 22.3 5 Oeste 9 Sudoeste 0 947.5 0.6 73
2019-09-04 09:00:00 19.2 4 Sudoeste 8 Sudoeste 0 947.2 0.4 89
2019-09-04 08:00:00 18.8 3 Oeste 10 Oeste 0 947.2 -0.1 90
2019-09-04 07:00:00 18.2 5 Oeste 12 Oeste 0 946.9 -0.7 91
2019-09-04 06:00:00 17.7 7 Oeste 13 Oeste 0 946.8 -1.2 90
2019-09-04 05:00:00 17.9 5 Oeste 9 Oeste 0 947.3 -1.1 90
2019-09-04 04:00:00 18.3 7 Oeste 11 Oeste 0 947.6 -0.7 89
2019-09-04 03:00:00 18.5 5 Sudoeste 8 Sudoeste 0 948 -0.3 87
2019-09-04 02:00:00 19.3 2 Norte 8 Sudoeste 0 948.4 0.3 85
2019-09-04 01:00:00 20 2 Oeste 6 Norte 0 948.3 0.6 82
2019-09-04 00:00:00 20.9 2 Este 6 Sudeste 0 948.3 1 78
2019-09-03 23:00:00 21.8 4 Sudeste 7 Este 0 948.1 1.1 74
2019-09-03 22:00:00 23 3 Sur 16 Sudoeste 0 947.7 1.1 68
2019-09-03 21:00:00 24.2 10 Sudoeste 19 Sudoeste 0 947.3 0.7 63
2019-09-03 20:00:00 26.1 13 Sur 24 Sur 0 947 0.4 56
2019-09-03 19:00:00 28.2 14 Sur 29 Sudeste 0 946.6 -0.7 47
2019-09-03 18:00:00 29.4 13 Sur 24 Sur 0 946.6 -1.4 43
2019-09-03 17:00:00 30.6 11 Sudeste 27 Sudeste 0 946.6 -1.9 38
2019-09-03 16:00:00 30.5 10 Sur 20 Sudoeste 0 947.3 -1.7 34
2019-09-03 15:00:00 29.4 6 Este 22 Este 0 948 -1.2 39
2019-09-03 14:00:00 27.8 13 Sudoeste 23 Sur 0 948.5 -0.8 46
2019-09-03 13:00:00 26.2 6 Sudoeste 19 Sudoeste 0 949 0 52
2019-09-03 12:00:00 23.5 4 Este 10 Este 0 949.2 0.5 64
2019-09-03 11:00:00 21.2 4 Nordeste 11 Nordeste 0 949.3 0.8 79
2019-09-03 10:00:00 18.5 5 Nordeste 10 Nordeste 0 949 0.9 91
2019-09-03 09:00:00 18 3 Sudeste 4 Sudeste 0 948.7 0.8 91
2019-09-03 08:00:00 17.5 0 Calma 5 Nordeste 0 948.5 0.7 91
2019-09-03 07:00:00 17.3 3 Noroeste 9 Oeste 0 948.1 -0.1 91
2019-09-03 06:00:00 16.6 3 Oeste 11 Oeste 0 947.9 -0.2 91
2019-09-03 05:00:00 16.7 6 Oeste 10 Sudoeste 0 947.8 -0.3 91
2019-09-03 04:00:00 16.9 5 Sudoeste 11 Oeste 0 948.2 0.3 89
2019-09-03 03:00:00 17.6 8 Oeste 11 Oeste 0 948.1 0.4 89
2019-09-03 02:00:00 17.6 4 Sudoeste 10 Sudoeste 0 948.1 0.8 87
2019-09-03 01:00:00 18.4 6 Oeste 11 Oeste 0 947.9 1.6 85
2019-09-03 00:00:00 19.4 5 Nordeste 10 Nordeste 0 947.7 2.1 82
2019-09-02 23:00:00 20.3 3 Nordeste 8 Nordeste 0 947.3 2.2 77
2019-09-02 22:00:00 21.4 3 Sur 8 Oeste 0 946.3 0.9 72
2019-09-02 21:00:00 23 3 Sur 19 Sudeste 0 945.6 0 66
2019-09-02 20:00:00 24.8 12 Sudeste 20 Sudeste 0 945.1 -0.5 57
2019-09-02 19:00:00 26.4 10 Sudoeste 21 Sudoeste 0 945.4 -0.6 41
2019-09-02 18:00:00 27 13 Sudoeste 26 Sudoeste 0 945.6 -0.8 38
2019-09-02 17:00:00 27.6 14 Sur 24 Sudeste 0 945.6 -1.1 44
2019-09-02 16:00:00 26.5 16 Sur 28 Sudoeste 0 946 -0.8 40
2019-09-02 15:00:00 26.2 13 Sur 27 Sudeste 0 946.4 -0.2 41
2019-09-02 14:00:00 26.7 17 Sur 29 Sur 0 946.7 -0.1 37
2019-09-02 13:00:00 24.5 10 Sudoeste 19 Sur 0.2 946.8 0.7 57
2019-09-02 12:00:00 22.6 10 Sur 18 Sur 0 946.6 1.3 75
2019-09-02 11:00:00 21.3 3 Nordeste 10 Este 0 946.8 2.3 78
2019-09-02 10:00:00 20.6 6 Nordeste 12 Nordeste 0 946.1 1.8 82
2019-09-02 09:00:00 18.6 11 Nordeste 22 Nordeste 0 945.3 1 89
2019-09-02 08:00:00 18.6 16 Nordeste 30 Nordeste 0.2 944.5 0.5 88
2019-09-02 07:00:00 19.3 18 Nordeste 28 Nordeste 0 944.3 0.5 88
2019-09-02 06:00:00 19.9 7 Este 34 Nordeste 1 944.3 1.2 88
2019-09-02 05:00:00 21 13 Este 29 Nordeste 0.6 944 0.6 83
2019-09-02 04:00:00 21.6 22 Norte 32 Norte 0 943.8 0.3 77
2019-09-02 03:00:00 21.7 2 Sudoeste 6 Sudoeste 0 943.1 -0.3 76
2019-09-02 02:00:00 22 5 Este 16 Nordeste 0 943.4 0.3 73
2019-09-02 01:00:00 22 11 Nordeste 17 Nordeste 0 943.5 0.9 72
2019-09-02 00:00:00 22.5 8 Nordeste 25 Nordeste 0 943.4 1.5 72
2019-09-01 23:00:00 24.9 3 Nordeste 10 Sudeste 0 943.1 1.7 57
2019-09-01 22:00:00 25.9 8 Sur 19 Sudoeste 0 942.6 1.3 47
2019-09-01 21:00:00 27.1 11 Sur 25 Sur 0 941.9 0.9 43
2019-09-01 20:00:00 29.2 14 Sur 28 Sudeste 0 941.4 0.2 35
2019-09-01 19:00:00 31.1 17 Sudeste 32 Sudeste 0 941.3 -0.2 32
2019-09-01 18:00:00 31.6 16 Sur 35 Sudeste 0 941 -1.1 27
2019-09-01 17:00:00 33.4 14 Sur 26 Sur 0 941.2 -1.4 26
2019-09-01 16:00:00 33.9 13 Sudoeste 23 Sudoeste 0 941.5 -1.8 21
2019-09-01 15:00:00 32.8 10 Sur 18 Sudoeste 0 942.1 -1.3 24
2019-09-01 14:00:00 31.8 5 Sudeste 14 Sur 0 942.6 -0.8 29
2019-09-01 13:00:00 30 8 Sudeste 21 Sudeste 0 943.3 0.1 36
2019-09-01 12:00:00 27.8 6 Sur 9 Sur 0 943.4 0.1 47
2019-09-01 11:00:00 25.4 3 Este 6 Este 0 943.4 0.2 55
2019-09-01 10:00:00 21.4 3 Sudeste 5 Sudeste 0 943.2 0.3 74
2019-09-01 09:00:00 17.4 2 Sudeste 4 Nordeste 0 943.3 0.5 90
2019-09-01 08:00:00 16.4 6 Oeste 13 Oeste 0 943.2 0.2 91
2019-09-01 07:00:00 16.2 3 Norte 11 Sudoeste 0 942.9 -0.4 91
2019-09-01 06:00:00 16 0 Calma 10 Sudoeste 0 942.8 -0.9 89
2019-09-01 05:00:00 16.6 6 Sudoeste 9 Oeste 0 943 -1 89
2019-09-01 04:00:00 17 4 Oeste 8 Sudoeste 0 943.3 -0.7 89
2019-09-01 03:00:00 17.7 2 Sudoeste 11 Oeste 0 943.7 -0.6 86
2019-09-01 02:00:00 18.6 8 Oeste 13 Oeste 0 944 -0.2 86
2019-09-01 01:00:00 18.7 4 Oeste 8 Sudoeste 0 944 0.2 84
2019-09-01 00:00:00 20.3 4 Sudoeste 15 Oeste 0 944.3 1.1 77
2019-08-31 23:00:00 21.1 10 Oeste 14 Oeste 0 944.2 1.2 75
2019-08-31 22:00:00 22.3 10 Sudoeste 14 Oeste 0 943.8 1.2 73
2019-08-31 21:00:00 24.7 4 Sudoeste 9 Sudeste 0 943.2 0.2 65
2019-08-31 20:00:00 28 4 Sur 14 Sudoeste 0 943 -0.6 41
2019-08-31 19:00:00 28.3 3 Oeste 15 Oeste 0 942.6 -1.3 33
2019-08-31 18:00:00 25.8 6 Sudoeste 34 Oeste 0 943 -1.1 49
2019-08-31 17:00:00 22.1 24 Oeste -- -- 3 943.6 -1.1 55
2019-08-31 16:00:00 23.7 23 Oeste 40 Oeste 2.2 943.9 -1.3 57
2019-08-31 15:00:00 32.9 8 Sudeste 21 Sudoeste 0 944.1 -1.3 26
2019-08-31 14:00:00 30.9 9 Nordeste 17 Nordeste 0 944.7 -0.7 30
2019-08-31 13:00:00 29.8 6 Este 15 Este 0 945.2 0 33
2019-08-31 12:00:00 28.5 5 Nordeste 12 Este 0 945.4 0.4 38
2019-08-31 11:00:00 26.8 3 Norte 8 Nordeste 0 945.4 0.6 44
2019-08-31 10:00:00 22.9 3 Este 5 Este 0 945.2 0.7 57
2019-08-31 09:00:00 18 2 Sudeste 5 Sudoeste 0 945 0.2 80
2019-08-31 08:00:00 15.1 2 Sudoeste 7 Sudoeste 0 944.8 -0.4 84
2019-08-31 07:00:00 15.5 3 Oeste 5 Sudoeste 0 944.5 -1.3 82
2019-08-31 06:00:00 16.2 2 Oeste 8 Oeste 0 944.8 -1.5 80
2019-08-31 05:00:00 16.9 4 Oeste 6 Sudoeste 0 945.2 -1.4 79
2019-08-31 04:00:00 17.9 3 Nordeste 6 Sudoeste 0 945.8 -1.2 77
2019-08-31 03:00:00 18 4 Oeste 7 Sudoeste 0 946.3 -0.9 76
2019-08-31 02:00:00 18.7 5 Sudoeste 7 Sudoeste 0 946.6 -0.6 72
2019-08-31 01:00:00 19.6 4 Noroeste 8 Sudoeste 0 947 0 70
2019-08-31 00:00:00 21.1 3 Sudoeste 13 Oeste 0 947.2 0.7 63
2019-08-30 23:00:00 21.8 7 Oeste 11 Oeste 0 947.2 1 61
2019-08-30 22:00:00 23.3 5 Oeste 9 Oeste 0 947 0.6 56
2019-08-30 21:00:00 25.3 6 Este 13 Este 0 946.5 0.1 48
2019-08-30 20:00:00 27.1 7 Nordeste 17 Norte 0 946.2 0.3 41
2019-08-30 19:00:00 26.6 3 Sudeste 19 Sudoeste 0 946.4 0.1 43
2019-08-30 18:00:00 26.9 14 Oeste 28 Sudeste 0 946.4 -0.5 42
2019-08-30 17:00:00 31.4 15 Sudeste 27 Sur 0 945.9 -1.6 31
2019-08-30 16:00:00 32.2 14 Sudeste 26 Este 0 946.3 -2 27
2019-08-30 15:00:00 33 11 Sudeste 20 Sudeste 0 946.9 -1.7 25
2019-08-30 14:00:00 31.9 6 Sudeste 19 Sudeste 0 947.5 -1.1 28
2019-08-30 13:00:00 30.4 5 Sudeste 13 Sudeste 0 948.3 -0.3 31
2019-08-30 12:00:00 28.9 5 Este 12 Sudeste 0 948.6 0.1 35
2019-08-30 11:00:00 26.2 4 Sudeste 9 Este 0 948.6 0.3 38
2019-08-30 10:00:00 22.1 5 Este 8 Nordeste 0 948.6 0.9 58
2019-08-30 09:00:00 17.8 0 Calma 6 Oeste 0 948.5 0.8 76
2019-08-30 08:00:00 15.4 3 Sudoeste 6 Sudoeste 0 948.3 0.5 80
2019-08-30 07:00:00 16 3 Oeste 9 Sudoeste 0 947.7 -0.2 77
2019-08-30 06:00:00 16.6 6 Oeste 9 Oeste 0 947.7 -0.6 76
2019-08-30 05:00:00 16.7 5 Oeste 8 Sudoeste 0 947.8 -0.5 76
2019-08-30 04:00:00 17.9 0 Calma 13 Oeste 0 947.9 -0.5 72
2019-08-30 03:00:00 17.9 5 Sudoeste 9 Oeste 0 948.3 0 70
2019-08-30 02:00:00 18.2 5 Sudoeste 12 Sudoeste 0 948.3 0.1 68
2019-08-30 01:00:00 19.6 6 Sudoeste 12 Sudoeste 0 948.4 0.4 64
2019-08-30 00:00:00 20.3 10 Sudoeste 15 Oeste 0 948.3 0.8 61
2019-08-29 23:00:00 21.9 4 Oeste 12 Sudoeste 0 948.2 1.2 55
2019-08-29 22:00:00 23.2 8 Sudoeste 17 Sudoeste 0 948 1.3 48
2019-08-29 21:00:00 24.4 13 Sudoeste 24 Sudoeste 0 947.5 0.8 55
2019-08-29 20:00:00 26.6 10 Sur 25 Sur 0 947 0.2 49
2019-08-29 19:00:00 27.9 14 Sur 23 Sur 0 946.7 -0.3 45
2019-08-29 18:00:00 29.4 15 Sur 24 Sur 0 946.7 -0.9 42
2019-08-29 17:00:00 30.7 9 Sudeste 18 Sudeste 0 946.8 -0.7 32
2019-08-29 16:00:00 31.6 10 Sudeste 21 Sudeste 0 947 -1 31
2019-08-29 15:00:00 30.5 9 Sudeste 23 Sudeste 0 947.6 -0.2 31
2019-08-29 14:00:00 30 6 Sudeste 24 Sudeste 0 947.5 -0.2 32
2019-08-29 13:00:00 29.4 10 Sur 18 Sudeste 0 948 0.5 37
2019-08-29 12:00:00 28.5 7 Sudeste 14 Sudeste 0 947.8 0.6 33
2019-08-29 11:00:00 25 4 Nordeste 7 Este 0 947.7 1 60
2019-08-29 10:00:00 21.3 3 Este 5 Sudeste 0 947.5 1.2 79
2019-08-29 09:00:00 18.3 3 Nordeste 8 Oeste 0 947.2 0.8 90
2019-08-29 08:00:00 16 4 Oeste 9 Oeste 0 946.7 0.1 90
2019-08-29 07:00:00 16.8 3 Oeste 10 Sudoeste 0 946.3 -0.4 91
2019-08-29 06:00:00 16.9 5 Sudoeste 8 Oeste 0 946.4 -0.5 90
2019-08-29 05:00:00 18 2 Sur 13 Oeste 0 946.6 -0.2 89
2019-08-29 04:00:00 18.2 8 Oeste 11 Oeste 0 946.7 -0.3 89
2019-08-29 03:00:00 18.4 5 Oeste 11 Oeste 0 946.9 0.1 87
2019-08-29 02:00:00 19 5 Oeste 12 Oeste 0 946.8 0.6 85
2019-08-29 01:00:00 19.6 9 Sudoeste 11 Oeste 0 947 1.5 84
2019-08-29 00:00:00 20.4 4 Oeste 9 Oeste 0 946.8 2.1 81
2019-08-28 23:00:00 21.7 0 Calma 6 Este 0 946.2 1.8 75
2019-08-28 22:00:00 23 5 Sudoeste 13 Sur 0 945.5 1.4 70
2019-08-28 21:00:00 24.4 9 Sur 18 Sur 0 944.7 0.6 65
2019-08-28 20:00:00 26.9 10 Sur 20 Sur 0 944.4 0.3 52
2019-08-28 19:00:00 28.1 10 Sur 25 Sur 0 944.1 -0.3 46
2019-08-28 18:00:00 29.5 12 Sudeste 26 Sudeste 0 944.1 -0.6 36
2019-08-28 17:00:00 31.4 7 Sudoeste 22 Sudoeste 0 944.1 -0.9 23
2019-08-28 16:00:00 31.7 6 Oeste 20 Oeste 0 944.4 -0.9 22
2019-08-28 15:00:00 29.7 10 Este 21 Nordeste 0 944.7 -0.8 26
2019-08-28 14:00:00 29 12 Norte 22 Nordeste 0 945 -0.3 31
2019-08-28 13:00:00 28.6 8 Este 21 Nordeste 0 945.3 0 33
2019-08-28 12:00:00 26.6 8 Nordeste 17 Nordeste 0 945.5 0.3 38
2019-08-28 11:00:00 24.1 5 Sudeste 9 Sudeste 0 945.3 0.5 53
2019-08-28 10:00:00 20.4 3 Este 6 Este 0 945.3 0.4 66
2019-08-28 09:00:00 15.6 2 Sudoeste 6 Sudoeste 0 945.2 0.5 89
2019-08-28 08:00:00 13.1 4 Sudoeste 7 Oeste 0 944.8 0 90
2019-08-28 07:00:00 13.5 3 Sur 7 Sudoeste 0 944.9 0 89
2019-08-28 06:00:00 13.9 3 Sudoeste 10 Oeste 0 944.7 -0.4 88
2019-08-28 05:00:00 14 4 Oeste 7 Oeste 0 944.8 -0.6 88
2019-08-28 04:00:00 14.6 2 Noroeste 7 Sudoeste 0 944.9 -0.5 86
2019-08-28 03:00:00 14.6 5 Oeste 7 Sudoeste 0 945.1 -0.1 86
2019-08-28 02:00:00 16 2 Oeste 17 Sudoeste 0 945.4 0.2 81
2019-08-28 01:00:00 16.2 11 Oeste 15 Oeste 0 945.4 0.8 84
2019-08-28 00:00:00 16.9 9 Oeste 13 Sudoeste 0 945.2 1.3 83
2019-08-27 23:00:00 18.2 3 Noroeste 8 Este 0 945.2 2.3 78
2019-08-27 22:00:00 19.5 4 Nordeste 15 Sudeste 0 944.6 2.2 67
2019-08-27 21:00:00 20.7 8 Este 27 Nordeste 0 943.9 1.7 64
2019-08-27 20:00:00 25.4 9 Nordeste 13 Nordeste 0 942.9 0.3 40
2019-08-27 19:00:00 26.1 4 Nordeste 10 Norte 0 942.4 -0.4 37
2019-08-27 18:00:00 26 7 Nordeste 17 Nordeste 0 942.2 -1.5 36
2019-08-27 17:00:00 25 10 Nordeste 21 Nordeste 0 942.6 -1.1 39
2019-08-27 16:00:00 24 12 Norte 40 Norte 0 942.8 -0.6 45
2019-08-27 15:00:00 22 25 Norte 40 Norte 0.8 943.7 0.4 67
2019-08-27 14:00:00 18.5 9 Nordeste -- -- 5.8 943.7 0.3 83
2019-08-27 13:00:00 23.8 8 Nordeste 19 Nordeste 0 943.4 0.3 58
2019-08-27 12:00:00 24.9 10 Nordeste 22 Nordeste 0 943.3 -0.2 55
2019-08-27 11:00:00 22.5 7 Nordeste 15 Nordeste 0 943.4 0 66
2019-08-27 10:00:00 20.2 4 Sudeste 7 Oeste 0 943.1 0.3 74
2019-08-27 09:00:00 17.9 3 Sudeste 8 Sudoeste 0 943.5 0.5 79
2019-08-27 08:00:00 16.1 2 Sudeste 6 Este 0 943.4 0.9 84
2019-08-27 07:00:00 16.3 4 Sur 8 Nordeste 0 942.8 0.3 83
2019-08-27 06:00:00 17.5 6 Nordeste 27 Norte 0 943 0 78
2019-08-27 05:00:00 18.3 17 Norte 27 Noroeste 0 942.5 -0.8 75
2019-08-27 04:00:00 18.2 12 Nordeste 36 Noroeste 0 942.5 -1.6 76
2019-08-27 03:00:00 19.3 19 Noroeste 32 Oeste 0.2 943 -0.8 73
2019-08-27 02:00:00 20.6 3 Noroeste 12 Este 0.8 943.3 -0.6 81
2019-08-27 01:00:00 21.1 4 Sur 10 Sudoeste 0 944.1 1.3 74
2019-08-27 00:00:00 21.1 6 Sur 15 Sudeste 0 943.8 2 75
2019-08-26 23:00:00 21.5 10 Este 29 Nordeste 0 943.9 2.1 75
2019-08-26 22:00:00 22.5 8 Nordeste 21 Este 0 942.8 0.5 70
2019-08-26 21:00:00 23.4 11 Este -- -- 0 941.8 -0.8 66
2019-08-26 20:00:00 24.6 9 Este 24 Nordeste 0 941.8 -1.1 62
2019-08-26 19:00:00 25.6 12 Sudeste 23 Sudeste 0 942.3 -0.8 57
2019-08-26 18:00:00 27 14 Sudeste 26 Sudeste 0 942.6 -1.4 50
2019-08-26 17:00:00 27.1 15 Sudeste 28 Sudeste 0 942.9 -1.2 47
2019-08-26 16:00:00 27 13 Sudeste 27 Sudeste 0 943.1 -0.9 48
2019-08-26 15:00:00 26.8 13 Sudeste 26 Sudeste 0 944 -0.8 46
2019-08-26 14:00:00 25.6 12 Sudeste 28 Nordeste 0 944.1 -0.8 51
2019-08-26 13:00:00 24.4 15 Este 35 Este 0 944 0.2 57
2019-08-26 12:00:00 21.5 12 Nordeste 22 Este 0 944.8 0.9 70
2019-08-26 11:00:00 22.4 7 Nordeste 21 Nordeste 0 944.9 0.9 61
2019-08-26 10:00:00 19.9 9 Nordeste 15 Nordeste 0 943.8 -0.2 77
2019-08-26 09:00:00 18.1 5 Nordeste 10 Sudoeste 0 943.9 -0.3 87
2019-08-26 08:00:00 15.8 2 Sur 8 Sudoeste 0 944 -0.2 88
2019-08-26 07:00:00 16.5 5 Este 13 Oeste 0 944 0 86
2019-08-26 06:00:00 16.2 6 Oeste 8 Oeste 0 944.2 -0.3 86
2019-08-26 05:00:00 17.2 8 Sudoeste 12 Oeste 0 944.2 -0.9 83
2019-08-26 04:00:00 17.4 2 Sur 14 Oeste 0 944 -1.2 82
2019-08-26 03:00:00 17.1 6 Oeste 14 Oeste 0 944.5 -0.8 81
2019-08-26 02:00:00 17 9 Oeste 14 Oeste 0 945.1 0 79
2019-08-26 01:00:00 17.3 5 Oeste 12 Sudoeste 0 945.2 0.4 75
2019-08-26 00:00:00 18.7 4 Oeste 10 Sudoeste 0 945.3 0.9 70
2019-08-25 23:00:00 20.4 0 Calma 11 Sur 0 945.1 1.1 67
2019-08-25 22:00:00 21.8 5 Sur 16 Sudeste 0 944.8 0.8 64
2019-08-25 21:00:00 23.7 10 Sur 19 Sudeste 0 944.4 0.3 53
2019-08-25 20:00:00 25.8 12 Sudeste 27 Sudeste 0 944 -0.2 44
2019-08-25 19:00:00 28.3 13 Sudeste 27 Sudeste 0 944 -0.5 34
2019-08-25 18:00:00 28.9 13 Sudeste 30 Sudeste 0 944.1 -0.8 27
2019-08-25 17:00:00 29.3 13 Sur -- -- 0 944.2 -1.1 27
2019-08-25 16:00:00 29.8 11 Sudeste 37 Sudeste 0 944.5 -1.3 28
2019-08-25 15:00:00 29.9 10 Este 30 Sudeste 0 944.9 -1.4 27
2019-08-25 14:00:00 29 11 Sudeste 26 Sudeste 0 945.3 -1.1 28
2019-08-25 13:00:00 27.8 11 Sudeste 21 Sudeste 0 945.8 -0.4 34
2019-08-25 12:00:00 26.5 8 Este 17 Nordeste 0 946.3 0.1 40
2019-08-25 11:00:00 23.9 7 Nordeste 13 Nordeste 0 946.4 0.5 53
2019-08-25 10:00:00 21.1 3 Este 7 Sudeste 0 946.2 0.4 70
2019-08-25 09:00:00 16.6 2 Sudoeste 3 Sur 0 946.2 0.4 90
2019-08-25 08:00:00 14.3 0 Calma 7 Oeste 0 945.9 0 90
2019-08-25 07:00:00 14.7 0 Calma 5 Sudoeste 0 945.8 -0.1 89
2019-08-25 06:00:00 15.2 4 Sudoeste 8 Oeste 0 945.8 -0.2 88
2019-08-25 05:00:00 15.9 3 Oeste 6 Sudoeste 0 945.9 -0.6 87
2019-08-25 04:00:00 16.7 4 Oeste 10 Oeste 0 945.9 -0.7 85
2019-08-25 03:00:00 18 6 Oeste 12 Oeste 0 946 -0.6 82
2019-08-25 02:00:00 18.5 7 Oeste 10 Oeste 0 946.5 0.1 80
2019-08-25 01:00:00 19.1 6 Oeste 9 Oeste 0 946.6 0.7 77
2019-08-25 00:00:00 20.3 5 Oeste 11 Sudoeste 0 946.6 1.2 72
2019-08-24 23:00:00 21.4 6 Oeste 9 Oeste 0 946.4 1.3 69
2019-08-24 22:00:00 22.8 4 Sudoeste 13 Sur 0 945.9 0.9 63
2019-08-24 21:00:00 24.4 6 Sur 18 Sudeste 0 945.4 0.3 55
2019-08-24 20:00:00 26.9 10 Sudeste 21 Sur 0 945.1 -0.1 46
2019-08-24 19:00:00 29.2 9 Sudeste 23 Sudeste 0 945 -0.6 38
2019-08-24 18:00:00 30.9 14 Este 30 Nordeste 0 945.1 -1 32
2019-08-24 17:00:00 31.5 11 Nordeste 27 Este 0 945.2 -1.5 17
2019-08-24 16:00:00 30.9 11 Este 23 Norte 0 945.6 -1.5 20
2019-08-24 15:00:00 30.5 6 Sudeste 22 Nordeste 0 946.1 -1.2 23
2019-08-24 14:00:00 29.5 5 Sudoeste 18 Este 0 946.7 -0.8 28
2019-08-24 13:00:00 28 5 Sudeste 20 Nordeste 0 947.1 0 32
2019-08-24 12:00:00 25.8 7 Este 16 Nordeste 0 947.3 0.2 39
2019-08-24 11:00:00 24.2 8 Este 16 Este 0 947.5 0.8 46
2019-08-24 10:00:00 20.9 4 Este 8 Este 0 947.1 0.4 54
2019-08-24 09:00:00 16.4 3 Nordeste 5 Nordeste 0 947.1 0.5 74
2019-08-24 08:00:00 13.3 3 Sudoeste 6 Sudoeste 0 946.7 -0.1 82
2019-08-24 07:00:00 13.9 5 Oeste 9 Sudoeste 0 946.7 -0.2 81
2019-08-24 06:00:00 14.3 3 Oeste 10 Oeste 0 946.6 -0.6 80
2019-08-24 05:00:00 14.4 4 Sudoeste 9 Sudoeste 0 946.8 -0.5 79
2019-08-24 04:00:00 14.9 4 Sudoeste 10 Oeste 0 946.9 -0.2 76
2019-08-24 03:00:00 15.9 6 Sudoeste 11 Oeste 0 947.2 0 77
2019-08-24 02:00:00 17 6 Oeste 11 Oeste 0 947.3 0.2 78
2019-08-24 01:00:00 17.7 7 Sudoeste 10 Sudoeste 0 947.1 0.5 73
2019-08-24 00:00:00 19 2 Sudoeste 10 Sudoeste 0 947.2 1.2 68
2019-08-23 23:00:00 21 5 Sudoeste 10 Oeste 0 947.1 1.5 62
2019-08-23 22:00:00 23 4 Sudoeste 13 Este 0 946.6 1 54
2019-08-23 21:00:00 25.1 8 Este 21 Sudeste 0 946 0.1 44
2019-08-23 20:00:00 27.9 10 Sudeste 19 Sudeste 0 945.6 -0.5 33
2019-08-23 19:00:00 29.3 7 Este 25 Sudoeste 0 945.6 -1 26
2019-08-23 18:00:00 29.9 9 Este 20 Sudeste 0 945.9 -1.2 24
2019-08-23 17:00:00 30.1 14 Sudoeste 25 Sudoeste 0 946.1 -1.6 21
2019-08-23 16:00:00 30.2 8 Sudeste 25 Sur 0 946.6 -1.7 21
2019-08-23 15:00:00 29.6 10 Sur 23 Sudeste 0 947.1 -1.3 20
2019-08-23 14:00:00 28.7 12 Este 23 Este 0 947.7 -0.8 21
2019-08-23 13:00:00 27.4 9 Sur 22 Sudeste 0 948.3 -0.2 31
2019-08-23 12:00:00 26 8 Sudeste 16 Este 0 948.4 0.1 38
2019-08-23 11:00:00 23.9 5 Nordeste 15 Nordeste 0 948.5 0.6 49
2019-08-23 10:00:00 19.6 4 Este 7 Nordeste 0 948.5 0.9 68
2019-08-23 09:00:00 15.3 0 Calma 5 Sudoeste 0 948.3 0.5 90
2019-08-23 08:00:00 12.3 2 Oeste 5 Oeste 0 947.9 0 91
2019-08-23 07:00:00 12.8 0 Calma 5 Sudoeste 0 947.6 -0.5 89
2019-08-23 06:00:00 13.8 0 Calma 9 Oeste 0 947.8 -0.6 88
2019-08-23 05:00:00 14.6 6 Oeste 10 Oeste 0 947.9 -0.6 87
2019-08-23 04:00:00 15.1 6 Oeste 8 Oeste 0 948.1 -0.3 85
2019-08-23 03:00:00 16.4 5 Oeste 11 Oeste 0 948.4 0.1 82
2019-08-23 02:00:00 17.6 6 Oeste 13 Oeste 0 948.5 0.5 78
2019-08-23 01:00:00 18.2 9 Oeste 14 Sudoeste 0 948.4 0.9 73
2019-08-23 00:00:00 18.5 9 Sudoeste 13 Oeste 0 948.3 1.2 71